createdAt,value
2022-08-07T00:01:44.393Z,99124.00
2022-08-07T00:04:32.207Z,99123.28
2022-08-07T00:07:40.905Z,99115.66
2022-08-07T00:10:48.146Z,99118.00
2022-08-07T00:13:59.899Z,99123.56
2022-08-07T00:17:06.610Z,99112.31
2022-08-07T00:20:15.633Z,99119.66
2022-08-07T00:23:33.162Z,99119.22
2022-08-07T00:26:49.139Z,99114.63
2022-08-07T00:29:58.793Z,99110.94
2022-08-07T00:33:02.685Z,99113.00
2022-08-07T00:36:33.025Z,99116.91
2022-08-07T00:39:36.027Z,99115.44
2022-08-07T00:42:47.656Z,99114.06
2022-08-07T00:45:53.059Z,99127.03
2022-08-07T00:48:56.737Z,99122.63
2022-08-07T00:52:08.258Z,99127.50
2022-08-07T00:55:13.184Z,99118.63
2022-08-07T00:58:22.328Z,99124.28
2022-08-07T01:01:25.397Z,99124.38
2022-08-07T01:04:30.282Z,99119.69
2022-08-07T01:07:37.394Z,99112.91
2022-08-07T01:10:40.564Z,99117.16
2022-08-07T01:13:55.725Z,99121.41
2022-08-07T01:17:00.240Z,99112.13
2022-08-07T01:20:10.074Z,99108.66
2022-08-07T01:23:25.492Z,99106.13
2022-08-07T01:26:39.883Z,99105.81
2022-08-07T01:29:43.544Z,99110.25
2022-08-07T01:32:46.368Z,99099.47
2022-08-07T01:35:53.327Z,99110.59
2022-08-07T01:38:59.607Z,99112.34
2022-08-07T01:42:36.800Z,99108.88
2022-08-07T01:45:36.964Z,99115.44
2022-08-07T01:48:46.638Z,99107.28
2022-08-07T01:52:03.951Z,99103.59
2022-08-07T01:55:22.562Z,99106.00
2022-08-07T01:58:33.165Z,99105.88
2022-08-07T02:02:02.728Z,99107.97
2022-08-07T02:05:07.527Z,99103.13
2022-08-07T02:08:13.805Z,99104.94
2022-08-07T02:11:57.895Z,99104.94
2022-08-07T02:14:41.552Z,99094.56
2022-08-07T02:17:49.456Z,99092.81
2022-08-07T02:20:57.330Z,99090.22
2022-08-07T02:24:00.448Z,99090.88
2022-08-07T02:27:06.896Z,99082.44
2022-08-07T02:30:12.378Z,99092.53
2022-08-07T02:33:18.047Z,99080.81
2022-08-07T02:36:29.287Z,99080.56
2022-08-07T02:39:43.979Z,99086.72
2022-08-07T02:43:00.413Z,99078.59
2022-08-07T02:46:03.663Z,99077.78
2022-08-07T02:49:06.572Z,99083.94
2022-08-07T02:52:13.482Z,99084.75
2022-08-07T02:55:28.601Z,99089.44
2022-08-07T02:58:47.160Z,99078.16
2022-08-07T03:01:52.050Z,99090.50
2022-08-07T03:04:58.025Z,99083.66
2022-08-07T03:08:07.394Z,99074.84
2022-08-07T03:11:12.396Z,99085.41
2022-08-07T03:14:16.962Z,99077.22
2022-08-07T03:17:25.755Z,99074.69
2022-08-07T03:20:29.142Z,99087.09
2022-08-07T03:24:19.307Z,99090.03
2022-08-07T03:26:58.143Z,99092.31
2022-08-07T03:30:03.808Z,99088.03
2022-08-07T03:33:08.649Z,99090.44
2022-08-07T03:36:15.649Z,99089.66
2022-08-07T03:39:46.561Z,99088.34
2022-08-07T03:42:42.314Z,99083.88
2022-08-07T03:45:48.584Z,99087.78
2022-08-07T03:49:02.727Z,99083.09
2022-08-07T03:52:06.602Z,99072.63
2022-08-07T03:55:09.977Z,99073.56
2022-08-07T03:59:05.500Z,99073.56
2022-08-07T04:01:43.139Z,99071.16
2022-08-07T04:04:48.123Z,99078.03
2022-08-07T04:07:51.398Z,99068.72
2022-08-07T04:12:24.345Z,99080.25
2022-08-07T04:14:38.471Z,99085.28
2022-08-07T04:18:57.548Z,99089.31
2022-08-07T04:21:08.671Z,99093.72
2022-08-07T04:24:30.724Z,99091.69
2022-08-07T04:27:44.308Z,99100.56
2022-08-07T04:30:56.987Z,99106.78
2022-08-07T04:34:01.705Z,99106.91
2022-08-07T04:37:08.073Z,99108.19
2022-08-07T04:40:29.727Z,99110.84
2022-08-07T04:44:12.022Z,99112.44
2022-08-07T04:47:08.691Z,99113.28
2022-08-07T04:50:17.185Z,99116.28
2022-08-07T04:53:39.901Z,99107.69
2022-08-07T04:58:12.326Z,99119.75
2022-08-07T05:00:29.965Z,99121.91
2022-08-07T05:04:00.037Z,99120.63
2022-08-07T05:07:19.507Z,99120.22
2022-08-07T05:10:35.148Z,99115.53
2022-08-07T05:14:53.041Z,99128.84
2022-08-07T05:17:05.899Z,99120.38
2022-08-07T05:20:16.606Z,99131.84
2022-08-07T05:23:23.180Z,99126.34
2022-08-07T05:26:33.271Z,99123.13
2022-08-07T05:29:51.333Z,99125.66
2022-08-07T05:32:57.072Z,99142.88
2022-08-07T05:36:01.436Z,99140.22
2022-08-07T05:39:09.038Z,99140.75
2022-08-07T05:42:33.657Z,99137.44
2022-08-07T05:45:47.325Z,99138.94
2022-08-07T05:48:58.335Z,99139.91
2022-08-07T05:52:02.340Z,99146.34
2022-08-07T05:55:10.951Z,99149.47
2022-08-07T05:58:14.500Z,99155.28
2022-08-07T06:01:21.771Z,99153.75
2022-08-07T06:04:26.252Z,99149.19
2022-08-07T06:08:30.436Z,99152.88
2022-08-07T06:10:58.321Z,99155.38
2022-08-07T06:14:13.033Z,99158.72
2022-08-07T06:17:30.610Z,99158.31
2022-08-07T06:20:50.451Z,99152.84
2022-08-07T06:24:38.409Z,99150.69
2022-08-07T06:28:00.054Z,99148.16
2022-08-07T06:30:52.911Z,99148.13
2022-08-07T06:33:56.162Z,99152.56
2022-08-07T06:36:59.641Z,99143.97
2022-08-07T06:40:13.106Z,99150.31
2022-08-07T06:43:23.835Z,99147.34
2022-08-07T06:46:31.273Z,99145.94
2022-08-07T06:49:50.995Z,99146.56
2022-08-07T06:52:55.751Z,99132.34
2022-08-07T06:56:01.194Z,99137.78
2022-08-07T07:00:11.856Z,99136.53
2022-08-07T07:02:53.709Z,99145.00
2022-08-07T07:06:02.995Z,99139.34
2022-08-07T07:09:24.670Z,99134.91
2022-08-07T07:12:41.842Z,99137.44
2022-08-07T07:15:56.970Z,99136.59
2022-08-07T07:19:41.010Z,99145.75
2022-08-07T07:22:36.972Z,99137.88
2022-08-07T07:26:35.523Z,99139.25
2022-08-07T07:29:40.537Z,99135.59
2022-08-07T07:32:42.697Z,99132.50
2022-08-07T07:36:04.156Z,99132.88
2022-08-07T07:39:09.417Z,99125.63
2022-08-07T07:42:17.721Z,99121.56
2022-08-07T07:46:37.412Z,99124.97
2022-08-07T07:48:52.004Z,99127.69
2022-08-07T07:52:04.298Z,99120.97
2022-08-07T07:55:11.576Z,99118.63
2022-08-07T07:58:14.658Z,99113.63
2022-08-07T08:02:02.575Z,99112.09
2022-08-07T08:04:46.774Z,99115.34
2022-08-07T08:08:01.197Z,99109.97
2022-08-07T08:11:08.197Z,99107.63
2022-08-07T08:14:11.383Z,99104.94
2022-08-07T08:17:57.550Z,99103.03
2022-08-07T08:20:40.645Z,99102.28
2022-08-07T08:24:03.687Z,99104.69
2022-08-07T08:27:09.657Z,99107.13
2022-08-07T08:30:17.465Z,99105.50
2022-08-07T08:33:24.313Z,99109.88
2022-08-07T08:36:34.118Z,99103.13
2022-08-07T08:39:39.809Z,99095.97
2022-08-07T08:43:04.904Z,99101.56
2022-08-07T08:46:10.238Z,99099.56
2022-08-07T08:49:33.186Z,99101.16
2022-08-07T08:52:53.606Z,99093.19
2022-08-07T08:55:59.456Z,99094.00
2022-08-07T08:59:13.454Z,99092.44
2022-08-07T09:02:34.649Z,99102.38
2022-08-07T09:05:45.192Z,99090.44
2022-08-07T09:08:57.916Z,99092.41
2022-08-07T09:12:30.326Z,99092.38
2022-08-07T09:16:23.467Z,99095.56
2022-08-07T09:19:52.942Z,99096.75
2022-08-07T09:24:32.667Z,99094.38
2022-08-07T09:26:27.760Z,99097.97
2022-08-07T09:30:03.930Z,99085.63
2022-08-07T09:33:24.281Z,99090.75
2022-08-07T09:36:37.455Z,99083.16
2022-08-07T09:39:55.290Z,99074.69
2022-08-07T09:43:09.230Z,99086.56
2022-08-07T09:47:25.997Z,99087.75
2022-08-07T09:50:19.616Z,99074.94
2022-08-07T09:53:23.851Z,99068.66
2022-08-07T09:56:53.586Z,99066.97
2022-08-07T10:00:18.847Z,99066.84
2022-08-07T10:04:04.974Z,99060.94
2022-08-07T10:07:05.236Z,99061.78
2022-08-07T10:11:07.769Z,99053.75
2022-08-07T10:14:11.194Z,99058.84
2022-08-07T10:18:02.620Z,99053.97
2022-08-07T10:21:50.659Z,99046.38
2022-08-07T10:25:22.817Z,99041.13
2022-08-07T10:28:39.503Z,99037.06
2022-08-07T10:31:58.456Z,99037.56
2022-08-07T10:35:12.454Z,99040.28
2022-08-07T10:38:36.131Z,99030.69
2022-08-07T10:42:00.406Z,99026.25
2022-08-07T10:45:19.745Z,99021.03
2022-08-07T10:48:48.627Z,99020.53
2022-08-07T10:52:12.984Z,99015.69
2022-08-07T10:55:37.197Z,99015.25
2022-08-07T10:58:59.655Z,99010.59
2022-08-07T11:02:12.290Z,99007.38
2022-08-07T11:05:35.812Z,99008.06
2022-08-07T11:08:57.702Z,99005.47
2022-08-07T11:12:04.372Z,98986.97
2022-08-07T11:15:17.356Z,98994.19
2022-08-07T11:18:27.480Z,98989.19
2022-08-07T11:21:40.802Z,98985.75
2022-08-07T11:24:51.872Z,98978.41
2022-08-07T11:28:02.115Z,98985.22
2022-08-07T11:31:11.709Z,98969.03
2022-08-07T11:34:20.605Z,98975.25
2022-08-07T11:37:38.333Z,98963.91
2022-08-07T11:40:50.554Z,98960.84
2022-08-07T11:44:12.721Z,98968.06
2022-08-07T11:47:38.679Z,98968.66
2022-08-07T11:51:03.733Z,98955.09
2022-08-07T11:54:17.743Z,98955.59
2022-08-07T11:58:00.792Z,98959.78
2022-08-07T12:01:05.074Z,98955.19
2022-08-07T12:04:45.875Z,98952.50
2022-08-07T12:08:00.532Z,98945.34
2022-08-07T12:11:21.562Z,98948.09
2022-08-07T12:14:28.832Z,98945.09
2022-08-07T12:17:59.801Z,98939.78
2022-08-07T12:21:21.161Z,98931.28
2022-08-07T12:24:41.146Z,98933.81
2022-08-07T12:28:08.721Z,98929.84
2022-08-07T12:31:17.201Z,98920.69
2022-08-07T12:34:26.037Z,98933.78
2022-08-07T12:38:09.396Z,98927.81
2022-08-07T12:40:53.739Z,98921.47
2022-08-07T12:44:04.354Z,98925.69
2022-08-07T12:47:14.077Z,98928.44
2022-08-07T12:50:39.372Z,98924.75
2022-08-07T12:54:03.433Z,98920.81
2022-08-07T12:57:10.800Z,98930.97
2022-08-07T13:00:31.124Z,98930.56
2022-08-07T13:04:00.547Z,98915.03
2022-08-07T13:08:14.533Z,98904.16
2022-08-07T13:11:31.294Z,98897.41
2022-08-07T13:15:00.739Z,98889.34
2022-08-07T13:18:26.050Z,98903.63
2022-08-07T13:21:50.207Z,98890.16
2022-08-07T13:24:59.145Z,98888.94
2022-08-07T13:28:11.459Z,98875.59
2022-08-07T13:31:22.042Z,98876.97
2022-08-07T13:34:37.011Z,98871.66
2022-08-07T13:37:49.656Z,98856.03
2022-08-07T13:41:06.141Z,98860.75
2022-08-07T13:44:13.049Z,98860.97
2022-08-07T13:47:25.079Z,98849.56
2022-08-07T13:50:32.957Z,98846.16
2022-08-07T13:53:59.333Z,98839.38
2022-08-07T13:57:10.877Z,98829.22
2022-08-07T14:00:26.235Z,98829.72
2022-08-07T14:04:07.487Z,98829.19
2022-08-07T14:06:56.558Z,98821.34
2022-08-07T14:10:16.414Z,98825.63
2022-08-07T14:13:33.228Z,98816.75
2022-08-07T14:16:40.641Z,98811.91
2022-08-07T14:20:41.161Z,98812.31
2022-08-07T14:23:31.235Z,98812.00
2022-08-07T14:26:50.428Z,98808.91
2022-08-07T14:30:06.232Z,98807.13
2022-08-07T14:33:15.207Z,98799.31
2022-08-07T14:36:17.953Z,98797.84
2022-08-07T14:40:17.071Z,98790.38
2022-08-07T14:42:59.932Z,98784.94
2022-08-07T14:46:04.852Z,98796.31
2022-08-07T14:52:33.947Z,98776.97
2022-08-07T14:55:55.512Z,98768.22
2022-08-07T15:02:31.631Z,98763.50
2022-08-07T15:05:37.603Z,98759.97
2022-08-07T15:09:03.529Z,98765.94
2022-08-07T15:12:30.545Z,98759.97
2022-08-07T15:15:38.838Z,98766.66
2022-08-07T15:18:45.281Z,98769.38
2022-08-07T15:25:19.768Z,98760.88
2022-08-07T15:28:34.411Z,98764.78
2022-08-07T15:31:58.010Z,98754.06
2022-08-07T15:35:06.556Z,98758.69
2022-08-07T15:38:30.132Z,98752.50
2022-08-07T15:42:44.141Z,98754.22
2022-08-07T15:44:57.944Z,98750.78
2022-08-07T15:48:08.000Z,98744.84
2022-08-07T15:51:17.168Z,98753.16
2022-08-07T15:54:21.844Z,98738.88
2022-08-07T15:57:47.398Z,98746.78
2022-08-07T16:00:51.475Z,98739.84
2022-08-07T16:04:01.393Z,98733.41
2022-08-07T16:08:33.706Z,98736.91
2022-08-07T16:10:30.005Z,98740.97
2022-08-07T16:14:03.235Z,98736.75
2022-08-07T16:18:02.337Z,98728.63
2022-08-07T16:21:43.992Z,98737.25
2022-08-07T16:24:34.628Z,98721.63
2022-08-07T16:27:45.144Z,98726.09
2022-08-07T16:30:55.877Z,98710.06
2022-08-07T16:34:07.403Z,98715.22
2022-08-07T16:38:03.059Z,98720.16
2022-08-07T16:41:20.773Z,98720.50
2022-08-07T16:45:03.801Z,98725.84
2022-08-07T16:48:53.744Z,98726.34
2022-08-07T16:52:51.707Z,98718.69
2022-08-07T16:55:47.671Z,98712.94
2022-08-07T16:59:14.588Z,98712.38
2022-08-07T17:02:53.611Z,98719.66
2022-08-07T17:06:31.465Z,98708.78
2022-08-07T17:10:05.331Z,98705.63
2022-08-07T17:13:05.919Z,98703.78
2022-08-07T17:16:16.709Z,98713.22
2022-08-07T17:20:00.690Z,98710.38
2022-08-07T17:22:59.174Z,98709.56
2022-08-07T17:26:23.466Z,98724.72
2022-08-07T17:30:14.914Z,98734.19
2022-08-07T17:34:09.102Z,98736.44
2022-08-07T17:36:57.709Z,98737.09
2022-08-07T17:40:08.074Z,98739.66
2022-08-07T17:43:18.470Z,98739.59
2022-08-07T17:46:34.511Z,98737.91
2022-08-07T17:49:43.093Z,98736.59
2022-08-07T17:52:53.944Z,98735.06
2022-08-07T17:56:06.813Z,98746.63
2022-08-07T17:59:11.183Z,98752.63
2022-08-07T18:02:29.989Z,98745.00
2022-08-07T18:06:02.944Z,98745.34
2022-08-07T18:09:05.878Z,98753.53
2022-08-07T18:12:20.268Z,98751.09
2022-08-07T18:15:42.323Z,98752.66
2022-08-07T18:21:02.364Z,98764.66
2022-08-07T18:22:27.351Z,98763.38
2022-08-07T18:25:40.117Z,98770.00
2022-08-07T18:28:57.588Z,98773.03
2022-08-07T18:32:09.919Z,98781.63
2022-08-07T18:35:18.937Z,98787.00
2022-08-07T18:38:56.140Z,98782.41
2022-08-07T18:41:58.726Z,98792.16
2022-08-07T18:45:44.209Z,98794.63
2022-08-07T18:50:31.880Z,98808.25
2022-08-07T18:52:37.361Z,98812.09
2022-08-07T18:55:57.130Z,98816.69
2022-08-07T18:59:46.766Z,98819.25
2022-08-07T19:02:55.526Z,98822.09
2022-08-07T19:06:04.333Z,98828.56
2022-08-07T19:09:55.486Z,98832.59
2022-08-07T19:12:58.125Z,98834.19
2022-08-07T19:17:05.842Z,98840.59
2022-08-07T19:19:55.649Z,98849.03
2022-08-07T19:23:18.643Z,98852.69
2022-08-07T19:26:28.925Z,98858.66
2022-08-07T19:31:05.544Z,98861.47
2022-08-07T19:32:59.627Z,98866.63
2022-08-07T19:36:03.653Z,98871.41
2022-08-07T19:39:08.965Z,98879.75
2022-08-07T19:42:24.981Z,98874.09
2022-08-07T19:46:05.861Z,98876.06
2022-08-07T19:48:59.590Z,98879.22
2022-08-07T19:52:02.535Z,98881.16
2022-08-07T19:55:05.643Z,98876.38
2022-08-07T19:58:16.839Z,98884.69
2022-08-07T20:01:56.116Z,98885.41
2022-08-07T20:04:50.106Z,98878.13
2022-08-07T20:07:58.407Z,98873.31
2022-08-07T20:11:03.887Z,98878.06
2022-08-07T20:14:20.787Z,98887.13
2022-08-07T20:17:29.337Z,98879.53
2022-08-07T20:20:33.176Z,98879.34
2022-08-07T20:23:42.915Z,98872.06
2022-08-07T20:26:51.953Z,98873.56
2022-08-07T20:30:00.675Z,98873.13
2022-08-07T20:33:04.959Z,98874.28
2022-08-07T20:36:13.230Z,98868.94
2022-08-07T20:40:03.094Z,98865.63
2022-08-07T20:42:47.613Z,98865.81
2022-08-07T20:46:29.864Z,98873.22
2022-08-07T20:49:58.374Z,98875.47
2022-08-07T20:52:50.543Z,98872.88
2022-08-07T20:55:58.168Z,98865.63
2022-08-07T20:59:05.356Z,98874.75
2022-08-07T21:02:37.547Z,98870.78
2022-08-07T21:05:54.669Z,98872.22
2022-08-07T21:09:13.826Z,98865.44
2022-08-07T21:12:28.411Z,98868.88
2022-08-07T21:15:58.592Z,98870.66
2022-08-07T21:19:00.578Z,98878.09
2022-08-07T21:22:05.536Z,98877.19
2022-08-07T21:25:13.270Z,98875.19
2022-08-07T21:28:47.986Z,98876.84
2022-08-07T21:32:42.938Z,98875.53
2022-08-07T21:35:13.823Z,98869.91
2022-08-07T21:38:27.453Z,98871.31
2022-08-07T21:41:38.017Z,98878.88
2022-08-07T21:44:59.257Z,98881.66
2022-08-07T21:48:05.295Z,98884.94
2022-08-07T21:51:19.888Z,98893.09
2022-08-07T21:54:37.505Z,98889.69
2022-08-07T21:57:52.327Z,98890.19
2022-08-07T22:00:58.336Z,98890.28
2022-08-07T22:04:04.486Z,98889.22
2022-08-07T22:07:13.312Z,98886.66
2022-08-07T22:10:20.052Z,98892.09
2022-08-07T22:13:52.607Z,98891.41
2022-08-07T22:16:52.581Z,98899.41
2022-08-07T22:20:22.805Z,98900.81
2022-08-07T22:23:33.051Z,98902.59
2022-08-07T22:26:44.375Z,98896.56
2022-08-07T22:29:52.743Z,98888.03
2022-08-07T22:33:04.924Z,98897.50
2022-08-07T22:36:13.648Z,98905.50
2022-08-07T22:39:28.307Z,98898.66
2022-08-07T22:46:21.604Z,98907.31
2022-08-07T22:49:54.098Z,98905.47
2022-08-07T22:53:05.557Z,98909.31
2022-08-07T22:56:14.131Z,98903.56
2022-08-07T22:59:52.787Z,98901.19
2022-08-07T23:03:09.542Z,98899.63
2022-08-07T23:06:35.408Z,98903.28
2022-08-07T23:10:06.338Z,98901.44
2022-08-07T23:13:29.436Z,98897.25
2022-08-07T23:16:54.768Z,98901.69
2022-08-07T23:20:51.451Z,98903.06
2022-08-07T23:24:06.042Z,98901.16
2022-08-07T23:28:21.411Z,98906.97
2022-08-07T23:31:42.568Z,98908.69
2022-08-07T23:34:56.524Z,98907.69
2022-08-07T23:38:19.273Z,98907.22
2022-08-07T23:42:05.026Z,98895.00
2022-08-07T23:45:33.293Z,98899.53
2022-08-07T23:48:58.798Z,98892.53
2022-08-07T23:53:01.317Z,98887.66
2022-08-07T23:55:52.437Z,98892.34
2022-08-07T23:59:10.576Z,98900.94
